Time;durP1;ratioP1;P1;durP2;ratioP2;P2;SDS_P1;SDS_P2;PMS_P1;PMS_P2;Temp;Humidity;BMP_temperature;BMP_pressure;BME280_temperature;BME280_humidity;BME280_pressure;Samples;Min_cycle;Max_cycle;Signal;HPM_P1;HPM_P2
2023/04/25 00:00:00;;;;;;;9.88;2.55;;;21.80;99.90;;;;;;5066767;28;20203;-77
2023/04/25 00:02:32;;;;;;;11.32;2.58;;;21.80;99.90;;;;;;5071152;28;20193;-77
2023/04/25 00:05:03;;;;;;;8.27;2.63;;;21.90;99.90;;;;;;5065643;28;20237;-77
2023/04/25 00:07:34;;;;;;;10.45;2.88;;;22.00;99.90;;;;;;5071223;28;20642;-78
2023/04/25 00:10:05;;;;;;;8.68;2.47;;;22.00;99.90;;;;;;5070406;28;20211;-77
2023/04/25 00:12:36;;;;;;;14.35;3.22;;;22.00;99.90;;;;;;5069156;28;20196;-77
2023/04/25 00:15:10;;;;;;;10.30;3.45;;;21.90;99.90;;;;;;5069981;28;20200;-76
2023/04/25 00:17:42;;;;;;;7.80;2.90;;;22.00;99.90;;;;;;5061340;28;20277;-74
2023/04/25 00:20:15;;;;;;;9.07;2.90;;;22.00;99.90;;;;;;5059008;28;20238;-77
2023/04/25 00:22:46;;;;;;;6.80;2.80;;;22.00;99.90;;;;;;5061357;28;20667;-79
2023/04/25 00:25:17;;;;;;;10.13;2.78;;;22.20;99.90;;;;;;5066265;28;20606;-79
2023/04/25 00:27:48;;;;;;;8.00;2.75;;;22.20;99.90;;;;;;5054759;28;20682;-78
2023/04/25 00:30:21;;;;;;;9.65;2.88;;;22.30;99.90;;;;;;5065987;28;20580;-78
2023/04/25 00:32:53;;;;;;;7.45;2.92;;;22.50;99.90;;;;;;5069909;28;20579;-79
2023/04/25 00:35:24;;;;;;;6.78;2.75;;;22.50;99.90;;;;;;5069763;28;20196;-79
2023/04/25 00:37:55;;;;;;;7.88;2.83;;;22.60;99.90;;;;;;5069031;28;20219;-77
2023/04/25 00:40:26;;;;;;;8.00;2.90;;;22.60;99.90;;;;;;5065850;28;20552;-78
2023/04/25 00:42:57;;;;;;;6.43;2.35;;;22.70;99.90;;;;;;5071516;28;20671;-78
2023/04/25 00:45:32;;;;;;;10.18;2.67;;;22.80;99.90;;;;;;5069971;28;20271;-78
2023/04/25 00:48:03;;;;;;;7.50;2.33;;;22.80;99.90;;;;;;5066911;28;20217;-78
2023/04/25 00:50:36;;;;;;;9.15;2.58;;;22.80;99.90;;;;;;5063263;28;20232;-78
2023/04/25 00:53:09;;;;;;;6.00;2.22;;;22.90;99.90;;;;;;5072376;28;20638;-78
2023/04/25 00:55:42;;;;;;;9.27;2.47;;;23.10;99.90;;;;;;5069655;28;20215;-78
2023/04/25 00:58:13;;;;;;;6.38;2.42;;;23.10;99.90;;;;;;5061256;28;20607;-77
2023/04/25 01:00:47;;;;;;;7.65;2.60;;;23.10;99.90;;;;;;5058952;28;20550;-79
2023/04/25 01:03:19;;;;;;;7.45;2.80;;;23.20;99.90;;;;;;5066297;28;20196;-79
2023/04/25 01:05:51;;;;;;;6.60;2.15;;;23.30;99.90;;;;;;5070026;28;20210;-79
2023/04/25 01:08:23;;;;;;;8.73;2.70;;;23.30;99.90;;;;;;5071373;28;20556;-78
2023/04/25 01:10:54;;;;;;;7.45;2.92;;;23.30;99.90;;;;;;5059321;28;20306;-78
2023/04/25 01:13:26;;;;;;;8.52;2.72;;;23.40;99.90;;;;;;5071198;28;20200;-79
2023/04/25 01:15:59;;;;;;;8.27;2.53;;;23.50;99.90;;;;;;5067627;28;20216;-79
2023/04/25 01:18:31;;;;;;;7.88;2.70;;;23.50;99.90;;;;;;5064056;28;20207;-75
2023/04/25 01:21:10;;;;;;;7.05;2.75;;;23.70;99.90;;;;;;5067823;28;20598;-77
2023/04/25 01:23:42;;;;;;;7.15;2.72;;;23.60;99.90;;;;;;5068661;28;20228;-79
2023/04/25 01:26:14;;;;;;;5.60;2.70;;;23.70;99.90;;;;;;5063177;28;20211;-77
2023/04/25 01:28:45;;;;;;;6.07;2.95;;;23.90;99.90;;;;;;5062906;28;20216;-77
2023/04/25 01:31:17;;;;;;;6.50;2.60;;;24.00;99.90;;;;;;5056386;28;20236;-78
2023/04/25 01:33:48;;;;;;;8.35;2.72;;;24.10;99.90;;;;;;5061196;28;20713;-77
2023/04/25 01:36:22;;;;;;;8.82;2.83;;;24.10;99.90;;;;;;5068028;28;20200;-78
2023/04/25 01:38:54;;;;;;;8.65;2.60;;;24.10;99.90;;;;;;5069042;28;20203;-78
2023/04/25 01:41:25;;;;;;;10.18;3.00;;;24.10;99.90;;;;;;5058258;28;20615;-78
2023/04/25 01:43:56;;;;;;;8.20;2.35;;;24.20;99.90;;;;;;5065775;28;20200;-78
2023/04/25 01:46:27;;;;;;;7.07;2.58;;;24.10;99.90;;;;;;5069514;28;20192;-77
2023/04/25 01:48:59;;;;;;;7.80;2.70;;;24.10;99.90;;;;;;5067949;28;20215;-78
2023/04/25 01:51:33;;;;;;;7.13;2.90;;;23.90;99.90;;;;;;5065311;28;20221;-78
2023/04/25 01:54:05;;;;;;;7.72;2.60;;;24.00;99.90;;;;;;5065440;28;20226;-78
2023/04/25 01:56:39;;;;;;;6.38;2.45;;;23.90;99.90;;;;;;5062631;28;20215;-79
2023/04/25 01:59:11;;;;;;;5.85;2.30;;;24.00;99.90;;;;;;5090378;22;20230;-76
2023/04/25 02:01:42;;;;;;;7.72;2.17;;;24.10;99.90;;;;;;5057282;28;20196;-78
2023/04/25 02:04:13;;;;;;;6.22;2.67;;;24.20;99.90;;;;;;5067985;28;20216;-77
2023/04/25 02:06:46;;;;;;;5.75;2.20;;;24.40;99.90;;;;;;5057825;28;20218;-76
2023/04/25 02:09:17;;;;;;;9.10;2.78;;;24.30;99.90;;;;;;5073803;28;20531;-77
2023/04/25 02:11:48;;;;;;;5.15;2.50;;;24.30;99.90;;;;;;5078777;28;20582;-77
2023/04/25 02:14:20;;;;;;;5.68;2.30;;;24.30;99.90;;;;;;5065151;28;20203;-77
2023/04/25 02:16:51;;;;;;;6.80;2.33;;;24.30;99.90;;;;;;5069408;28;20199;-77
2023/04/25 02:19:22;;;;;;;4.28;2.13;;;24.20;99.90;;;;;;5060287;28;20217;-75
2023/04/25 02:21:56;;;;;;;6.70;2.20;;;24.10;99.90;;;;;;5057116;28;20199;-76
2023/04/25 02:24:28;;;;;;;9.10;2.40;;;24.00;99.90;;;;;;5070994;28;20203;-77
2023/04/25 02:26:59;;;;;;;5.20;1.92;;;24.00;99.90;;;;;;5074421;28;20200;-77
2023/04/25 02:29:32;;;;;;;7.15;2.08;;;24.20;99.90;;;;;;5070995;28;20211;-77
2023/04/25 02:32:04;;;;;;;11.68;2.60;;;24.30;99.90;;;;;;5069228;28;20234;-77
2023/04/25 02:34:38;;;;;;;9.68;2.40;;;24.50;99.90;;;;;;5066314;28;20197;-78
2023/04/25 02:37:11;;;;;;;7.55;2.25;;;24.60;99.90;;;;;;5086810;28;20199;-77
2023/04/25 02:39:42;;;;;;;8.30;2.35;;;24.70;99.90;;;;;;5057790;28;20266;-77
2023/04/25 02:42:13;;;;;;;7.25;2.10;;;24.90;99.90;;;;;;5056537;28;20220;-76
2023/04/25 02:44:44;;;;;;;7.22;1.98;;;24.90;99.90;;;;;;5066515;28;20560;-77
2023/04/25 02:47:15;;;;;;;10.70;2.40;;;25.00;99.90;;;;;;5054035;28;20623;-78
2023/04/25 02:49:46;;;;;;;6.05;1.90;;;25.00;99.90;;;;;;5066957;28;20200;-78
2023/04/25 02:52:19;;;;;;;7.28;2.17;;;24.90;99.90;;;;;;5067673;28;20614;-77
2023/04/25 02:54:51;;;;;;;8.88;2.00;;;24.70;99.90;;;;;;5054859;28;20200;-78
2023/04/25 02:57:22;;;;;;;10.75;2.25;;;24.70;99.90;;;;;;5067486;28;20203;-77
2023/04/25 02:59:53;;;;;;;6.60;1.85;;;24.70;99.90;;;;;;5067639;28;20196;-77
2023/04/25 03:02:24;;;;;;;7.55;1.88;;;24.80;99.90;;;;;;5073582;28;20200;-77
2023/04/25 03:04:56;;;;;;;9.35;1.90;;;24.70;99.90;;;;;;5071392;28;20203;-78
2023/04/25 03:07:29;;;;;;;8.35;2.20;;;24.60;99.90;;;;;;5079741;28;20191;-77
2023/04/25 03:10:00;;;;;;;8.68;2.08;;;24.40;99.90;;;;;;5068586;28;20693;-77
2023/04/25 03:12:33;;;;;;;11.55;2.20;;;24.50;99.90;;;;;;5070089;28;20618;-78
2023/04/25 03:15:04;;;;;;;12.27;2.40;;;24.40;99.90;;;;;;5068280;28;20200;-78
2023/04/25 03:17:35;;;;;;;9.80;2.33;;;24.30;99.90;;;;;;5063272;28;20751;-78
2023/04/25 03:20:08;;;;;;;10.57;2.40;;;24.40;99.90;;;;;;5055558;28;20223;-75
2023/04/25 03:22:41;;;;;;;9.45;2.17;;;24.40;99.90;;;;;;5057353;28;20537;-79
2023/04/25 03:25:12;;;;;;;6.88;2.05;;;24.50;99.90;;;;;;5066975;28;20382;-76
2023/04/25 03:27:44;;;;;;;10.98;2.40;;;24.60;99.90;;;;;;5062415;28;20211;-77
2023/04/25 03:30:15;;;;;;;9.10;2.08;;;24.60;99.90;;;;;;5058285;28;20225;-76
2023/04/25 03:32:46;;;;;;;8.27;2.30;;;24.50;99.90;;;;;;5070931;28;20614;-77
2023/04/25 03:35:18;;;;;;;6.68;2.00;;;24.50;99.90;;;;;;5067158;28;20227;-77
2023/04/25 03:37:51;;;;;;;6.95;2.05;;;24.60;99.90;;;;;;5076348;28;20561;-78
2023/04/25 03:40:22;;;;;;;9.95;2.95;;;24.60;99.90;;;;;;5070062;28;20211;-76
2023/04/25 03:42:54;;;;;;;13.00;2.47;;;24.60;99.90;;;;;;5073084;28;20195;-77
2023/04/25 03:45:25;;;;;;;8.45;2.10;;;24.60;99.90;;;;;;5055287;28;20254;-76
2023/04/25 03:47:57;;;;;;;9.15;2.20;;;24.60;99.90;;;;;;5058074;28;20195;-77
2023/04/25 03:50:28;;;;;;;11.73;2.03;;;24.50;99.90;;;;;;5074072;28;20564;-76
2023/04/25 03:53:02;;;;;;;8.25;2.60;;;24.60;99.90;;;;;;5068353;28;20259;-76
2023/04/25 03:55:33;;;;;;;8.73;2.70;;;24.60;99.90;;;;;;5078338;28;20223;-76
2023/04/25 03:58:06;;;;;;;11.77;2.35;;;24.60;99.90;;;;;;5080500;28;20228;-78
2023/04/25 04:00:37;;;;;;;7.85;2.38;;;24.50;99.90;;;;;;5079697;28;20560;-77
2023/04/25 04:03:08;;;;;;;9.27;2.38;;;24.50;99.90;;;;;;5073242;28;20196;-77
2023/04/25 04:05:40;;;;;;;7.97;2.20;;;24.40;99.90;;;;;;5081505;28;20192;-77
2023/04/25 04:08:13;;;;;;;7.60;2.10;;;24.30;99.90;;;;;;5075471;28;20200;-77
2023/04/25 04:10:45;;;;;;;6.88;2.08;;;24.30;99.90;;;;;;5072897;28;20192;-77
2023/04/25 04:13:20;;;;;;;9.10;1.92;;;24.20;99.90;;;;;;5075804;28;20220;-75
2023/04/25 04:15:52;;;;;;;7.43;2.10;;;24.20;99.90;;;;;;5069192;28;20195;-75
2023/04/25 04:18:23;;;;;;;10.57;2.33;;;24.10;99.90;;;;;;5066652;28;20668;-76
2023/04/25 04:20:54;;;;;;;8.23;1.77;;;24.20;99.90;;;;;;5064787;28;20200;-74
2023/04/25 04:23:29;;;;;;;7.18;2.03;;;24.20;99.90;;;;;;5067910;28;20204;-77
2023/04/25 04:26:03;;;;;;;5.13;1.90;;;24.20;99.90;;;;;;5078465;28;20206;-74
2023/04/25 04:28:34;;;;;;;7.78;2.00;;;24.20;99.90;;;;;;5076300;28;20218;-75
2023/04/25 04:31:05;;;;;;;7.63;2.17;;;24.20;99.90;;;;;;5071865;28;20540;-75
2023/04/25 04:33:44;;;;;;;9.50;2.28;;;24.20;99.90;;;;;;5071133;28;20279;-75
2023/04/25 04:36:19;;;;;;;8.82;2.10;;;24.00;99.90;;;;;;5073313;28;20219;-76
2023/04/25 04:38:53;;;;;;;9.35;2.20;;;24.10;99.90;;;;;;5085449;28;20199;-77
2023/04/25 04:41:24;;;;;;;6.95;2.30;;;23.90;99.90;;;;;;5071931;28;20276;-74
2023/04/25 04:43:55;;;;;;;8.43;2.30;;;23.90;99.90;;;;;;5070565;28;20204;-77
2023/04/25 04:46:27;;;;;;;9.32;2.13;;;23.80;99.90;;;;;;5059051;28;20192;-79
2023/04/25 04:48:58;;;;;;;7.07;1.80;;;23.70;99.90;;;;;;5065907;28;20204;-77
2023/04/25 04:51:29;;;;;;;9.98;2.20;;;23.70;99.90;;;;;;5072124;28;20764;-76
2023/04/25 04:54:03;;;;;;;9.15;2.40;;;23.70;99.90;;;;;;5091277;28;20568;-77
2023/04/25 04:56:34;;;;;;;9.75;2.33;;;23.80;99.90;;;;;;5079435;28;20216;-76
2023/04/25 04:59:05;;;;;;;9.07;2.40;;;23.80;99.90;;;;;;5085473;28;20228;-77
2023/04/25 05:01:37;;;;;;;6.53;2.22;;;23.80;99.90;;;;;;5064532;28;20290;-77
2023/04/25 05:04:08;;;;;;;8.70;2.53;;;23.90;99.90;;;;;;5052994;28;20200;-78
2023/04/25 05:06:39;;;;;;;11.85;2.22;;;23.80;99.90;;;;;;5054075;28;20200;-78
2023/04/25 05:09:12;;;;;;;9.60;2.33;;;23.80;99.90;;;;;;5056968;28;20215;-78
2023/04/25 05:11:43;;;;;;;9.57;2.30;;;23.70;99.90;;;;;;5072296;28;20759;-76
2023/04/25 05:14:14;;;;;;;11.40;2.42;;;23.70;99.90;;;;;;5068341;28;20192;-78
2023/04/25 05:16:46;;;;;;;10.80;2.28;;;23.70;99.90;;;;;;5062949;28;20222;-76
2023/04/25 05:19:17;;;;;;;7.35;2.42;;;23.70;99.90;;;;;;5062113;28;20192;-76
2023/04/25 05:21:49;;;;;;;7.97;1.95;;;23.70;99.90;;;;;;5060259;28;20278;-76
2023/04/25 05:24:22;;;;;;;5.88;1.90;;;23.70;99.90;;;;;;5058427;28;20224;-76
2023/04/25 05:26:53;;;;;;;8.80;2.45;;;23.70;99.90;;;;;;5057758;28;20679;-76
2023/04/25 05:29:24;;;;;;;11.10;2.65;;;23.80;99.90;;;;;;5055576;28;20625;-76
2023/04/25 05:31:55;;;;;;;8.23;2.38;;;23.80;99.90;;;;;;5055268;28;20224;-76
2023/04/25 05:34:26;;;;;;;7.93;2.00;;;23.90;99.90;;;;;;5046996;28;20188;-75
2023/04/25 05:37:02;;;;;;;9.43;2.38;;;23.90;99.90;;;;;;5057897;28;20200;-78
2023/04/25 05:39:36;;;;;;;8.70;2.30;;;23.90;99.90;;;;;;5056240;28;20286;-77
2023/04/25 05:42:07;;;;;;;9.10;2.20;;;23.90;99.90;;;;;;5056811;28;20196;-75
2023/04/25 05:44:38;;;;;;;8.20;2.22;;;23.90;99.90;;;;;;5058206;28;20714;-76
2023/04/25 05:47:09;;;;;;;10.93;2.67;;;23.90;99.90;;;;;;5070373;28;20204;-75
2023/04/25 05:49:40;;;;;;;11.20;2.40;;;23.90;99.90;;;;;;5065558;28;20208;-76
2023/04/25 05:52:11;;;;;;;11.73;2.35;;;23.90;99.90;;;;;;5067966;28;20572;-76
2023/04/25 05:54:44;;;;;;;8.68;1.80;;;23.90;99.90;;;;;;5067901;28;20196;-75
2023/04/25 05:57:23;;;;;;;6.72;2.03;;;23.90;99.90;;;;;;5056831;28;20201;-77
2023/04/25 05:59:55;;;;;;;7.65;1.98;;;24.00;99.90;;;;;;5048578;28;20791;-77
2023/04/25 06:02:26;;;;;;;8.15;2.08;;;24.00;99.90;;;;;;5050994;28;20196;-77
2023/04/25 06:04:57;;;;;;;7.88;1.80;;;24.10;99.90;;;;;;5051315;28;20196;-76
2023/04/25 06:07:29;;;;;;;7.28;2.03;;;24.10;99.90;;;;;;5070045;28;20192;-76
2023/04/25 06:10:06;;;;;;;10.07;2.15;;;24.10;99.90;;;;;;5069967;28;20196;-76
2023/04/25 06:12:38;;;;;;;6.93;2.13;;;24.10;99.90;;;;;;5059006;28;20228;-75
2023/04/25 06:15:10;;;;;;;8.73;2.20;;;24.10;99.90;;;;;;5059179;28;20200;-77
2023/04/25 06:17:41;;;;;;;8.65;2.20;;;24.20;99.90;;;;;;5050485;28;20735;-77
2023/04/25 06:20:13;;;;;;;9.32;1.88;;;24.30;99.90;;;;;;5056370;28;20196;-78
2023/04/25 06:22:44;;;;;;;8.35;2.25;;;24.40;99.90;;;;;;5066245;28;20200;-76
2023/04/25 06:25:17;;;;;;;11.23;2.10;;;24.40;99.90;;;;;;5057504;28;20729;-75
2023/04/25 06:27:48;;;;;;;8.18;2.15;;;24.40;99.90;;;;;;5054500;28;20195;-76
2023/04/25 06:30:22;;;;;;;12.55;2.25;;;24.30;99.90;;;;;;5060506;28;20623;-77
2023/04/25 06:32:53;;;;;;;7.93;2.15;;;24.30;99.90;;;;;;5063372;28;20278;-76
2023/04/25 06:35:24;;;;;;;9.68;2.50;;;24.40;99.90;;;;;;5061998;28;20204;-76
2023/04/25 06:37:55;;;;;;;7.68;1.88;;;24.30;99.90;;;;;;5062613;28;20200;-77
2023/04/25 06:40:28;;;;;;;8.25;2.25;;;24.30;99.90;;;;;;5058634;28;20204;-77
2023/04/25 06:42:59;;;;;;;13.82;2.40;;;24.30;99.90;;;;;;5053430;28;20192;-77
2023/04/25 06:45:30;;;;;;;7.88;2.13;;;24.20;99.90;;;;;;5064134;28;20196;-77
2023/04/25 06:48:01;;;;;;;8.68;1.75;;;24.00;99.90;;;;;;5059465;28;20192;-76
2023/04/25 06:50:33;;;;;;;7.70;1.70;;;23.90;99.90;;;;;;5067977;28;20199;-77
2023/04/25 06:53:04;;;;;;;5.80;1.67;;;23.80;99.90;;;;;;5067617;28;20232;-77
2023/04/25 06:55:37;;;;;;;7.18;2.00;;;23.70;99.90;;;;;;5062030;28;20199;-75
2023/04/25 06:58:08;;;;;;;7.95;1.98;;;23.60;99.90;;;;;;5065944;28;20702;-76
2023/04/25 07:00:39;;;;;;;8.45;1.88;;;23.40;99.90;;;;;;5066463;28;20625;-76
2023/04/25 07:03:10;;;;;;;5.68;1.83;;;23.30;99.90;;;;;;5064732;28;20203;-77
2023/04/25 07:05:41;;;;;;;7.18;2.00;;;23.20;99.90;;;;;;5062008;28;20199;-76
2023/04/25 07:08:15;;;;;;;8.63;2.10;;;23.10;99.90;;;;;;5064292;28;20199;-76
2023/04/25 07:10:50;;;;;;;6.75;1.75;;;23.00;99.90;;;;;;5069031;28;20238;-76
2023/04/25 07:13:21;;;;;;;8.20;1.88;;;22.90;99.90;;;;;;5065374;28;20225;-78
2023/04/25 07:15:51;;;;;;;8.57;1.73;;;22.80;99.90;;;;;;5068885;28;20200;-77
2023/04/25 07:18:23;;;;;;;7.75;2.20;;;22.70;99.90;;;;;;5066278;28;20199;-77
2023/04/25 07:20:54;;;;;;;8.68;1.80;;;22.70;99.90;;;;;;5065643;28;20207;-77
2023/04/25 07:23:24;;;;;;;8.13;1.80;;;22.60;99.90;;;;;;5066827;28;21021;-76
2023/04/25 07:25:57;;;;;;;6.85;1.67;;;22.50;99.90;;;;;;5062812;28;20711;-78
2023/04/25 07:28:28;;;;;;;9.52;2.08;;;22.50;99.90;;;;;;5064537;28;20211;-79
2023/04/25 07:30:58;;;;;;;5.97;1.67;;;22.40;99.90;;;;;;5052226;28;20212;-77
2023/04/25 07:33:31;;;;;;;7.43;2.08;;;22.30;99.90;;;;;;5068317;28;20250;-77
2023/04/25 07:36:02;;;;;;;8.18;1.85;;;22.30;99.90;;;;;;5063170;28;20196;-77
2023/04/25 07:38:33;;;;;;;6.72;2.22;;;22.30;99.90;;;;;;5065497;28;20211;-78
2023/04/25 07:41:05;;;;;;;7.30;1.88;;;22.20;99.90;;;;;;5044840;28;20227;-77
2023/04/25 07:43:37;;;;;;;7.82;1.67;;;22.20;99.90;;;;;;5058901;28;20196;-77
2023/04/25 07:46:08;;;;;;;7.07;1.75;;;22.10;99.90;;;;;;5057615;28;20196;-77
2023/04/25 07:48:39;;;;;;;8.63;2.25;;;22.10;99.90;;;;;;5062379;28;20271;-74
2023/04/25 07:51:09;;;;;;;7.72;2.00;;;22.10;99.90;;;;;;5052492;28;20184;-76
2023/04/25 07:53:40;;;;;;;9.88;2.03;;;22.10;99.90;;;;;;5064990;28;20236;-76
2023/04/25 07:56:13;;;;;;;8.32;2.10;;;22.10;99.90;;;;;;5074637;28;20243;-76
2023/04/25 07:58:43;;;;;;;10.38;2.28;;;22.10;99.90;;;;;;5071325;28;20986;-75
2023/04/25 08:01:16;;;;;;;10.90;2.60;;;22.00;99.90;;;;;;5073934;28;20659;-75
2023/04/25 08:03:48;;;;;;;11.60;2.70;;;22.00;99.90;;;;;;5073160;28;20295;-75
2023/04/25 08:06:20;;;;;;;9.85;2.30;;;22.00;99.90;;;;;;5073697;28;20196;-76
2023/04/25 08:08:50;;;;;;;8.30;2.45;;;22.00;99.90;;;;;;5064749;28;20210;-75
2023/04/25 08:11:23;;;;;;;9.10;2.15;;;22.00;99.90;;;;;;5071509;28;20265;-75
2023/04/25 08:13:54;;;;;;;10.73;2.60;;;21.90;99.90;;;;;;5068522;28;20231;-77
2023/04/25 08:16:25;;;;;;;10.68;2.60;;;21.90;99.90;;;;;;5064656;28;20224;-75
2023/04/25 08:18:56;;;;;;;9.98;2.40;;;21.90;99.90;;;;;;5072564;28;20207;-75
2023/04/25 08:21:26;;;;;;;10.40;2.35;;;21.80;99.90;;;;;;5068863;28;20678;-76
2023/04/25 08:23:57;;;;;;;13.15;2.65;;;21.80;99.90;;;;;;5074187;28;20559;-75
2023/04/25 08:26:32;;;;;;;7.60;2.22;;;21.80;99.90;;;;;;5068802;28;20218;-75
2023/04/25 08:29:04;;;;;;;11.65;2.58;;;21.80;99.90;;;;;;5070310;28;20218;-76
2023/04/25 08:31:35;;;;;;;10.48;2.40;;;21.80;99.90;;;;;;5075314;28;20754;-76
2023/04/25 08:34:05;;;;;;;8.20;2.05;;;21.80;99.90;;;;;;5071390;28;20284;-76
2023/04/25 08:36:36;;;;;;;9.38;2.30;;;21.70;99.90;;;;;;5069843;28;20200;-76
2023/04/25 08:39:06;;;;;;;11.88;2.53;;;21.70;99.90;;;;;;5070264;28;20196;-76
2023/04/25 08:41:42;;;;;;;7.93;2.35;;;21.70;99.90;;;;;;5071459;28;20196;-77
2023/04/25 08:44:18;;;;;;;10.25;2.92;;;21.70;99.90;;;;;;5069759;28;20195;-76
2023/04/25 08:46:51;;;;;;;10.52;2.80;;;21.70;99.90;;;;;;5074429;28;20204;-76
2023/04/25 08:49:21;;;;;;;9.93;2.47;;;21.60;99.90;;;;;;5066467;28;20196;-75
2023/04/25 08:51:54;;;;;;;12.05;4.10;;;21.60;99.90;;;;;;5060465;28;20572;-78
2023/04/25 08:54:30;;;;;;;13.52;3.67;;;21.60;99.90;;;;;;5055352;28;20728;-76
2023/04/25 08:57:07;;;;;;;9.52;3.10;;;21.60;99.90;;;;;;5071976;28;20293;-76
2023/04/25 08:59:40;;;;;;;12.70;3.45;;;21.60;99.90;;;;;;5065568;28;20601;-75
2023/04/25 09:02:14;;;;;;;15.00;3.22;;;21.50;99.90;;;;;;5071428;28;20196;-75
2023/04/25 09:04:48;;;;;;;9.50;3.08;;;21.50;99.90;;;;;;5069300;28;20667;-76
2023/04/25 09:07:21;;;;;;;11.07;3.60;;;21.50;99.90;;;;;;5060793;28;20198;-77
2023/04/25 09:09:54;;;;;;;10.63;3.47;;;21.50;99.90;;;;;;5061501;28;20219;-78
2023/04/25 09:12:26;;;;;;;12.63;3.00;;;21.50;99.90;;;;;;5059378;28;20207;-77
2023/04/25 09:15:08;;;;;;;11.25;2.40;;;21.50;99.90;;;;;;5065298;28;20686;-76
2023/04/25 09:17:40;;;;;;;10.20;2.67;;;21.50;99.90;;;;;;5067480;28;20685;-76
2023/04/25 09:20:12;;;;;;;11.70;2.47;;;21.50;99.90;;;;;;5050023;28;20253;-76
2023/04/25 09:22:43;;;;;;;9.50;3.13;;;21.40;99.90;;;;;;5066444;28;20196;-75
2023/04/25 09:25:15;;;;;;;9.27;2.45;;;21.50;99.90;;;;;;5065704;28;20231;-74
2023/04/25 09:27:56;;;;;;;9.48;2.35;;;21.50;99.90;;;;;;5069875;28;20227;-75
2023/04/25 09:30:34;;;;;;;14.48;2.95;;;21.50;99.90;;;;;;5064818;28;20188;-77
2023/04/25 09:33:09;;;;;;;9.18;2.40;;;21.40;99.90;;;;;;5067706;28;20222;-76
2023/04/25 09:35:43;;;;;;;8.40;1.95;;;21.40;99.90;;;;;;5059305;28;20211;-76
2023/04/25 09:38:18;;;;;;;11.45;2.47;;;21.40;99.90;;;;;;5062261;28;20195;-77
2023/04/25 09:40:51;;;;;;;10.02;2.42;;;21.40;99.90;;;;;;5044790;28;20674;-76
2023/04/25 09:43:25;;;;;;;12.95;2.58;;;21.30;99.90;;;;;;5033926;28;20192;-77
2023/04/25 09:46:00;;;;;;;9.70;2.67;;;21.30;99.90;;;;;;5060072;28;20197;-76
2023/04/25 09:48:31;;;;;;;9.15;2.47;;;21.30;99.90;;;;;;5065667;28;20202;-75
2023/04/25 09:51:18;;;;;;;8.27;2.00;;;21.30;99.90;;;;;;5059301;28;20200;-75
2023/04/25 09:53:51;;;;;;;9.57;2.30;;;21.30;99.90;;;;;;5066197;28;20228;-76
2023/04/25 09:56:24;;;;;;;10.20;2.65;;;21.30;99.90;;;;;;5066558;28;20283;-76
2023/04/25 09:58:58;;;;;;;10.30;2.10;;;21.30;99.90;;;;;;5070056;28;20228;-75
2023/04/25 10:01:31;;;;;;;10.63;2.45;;;21.20;99.90;;;;;;5066793;28;20189;-77
2023/04/25 10:04:03;;;;;;;12.82;2.72;;;21.20;99.90;;;;;;5067241;28;20279;-76
2023/04/25 10:06:38;;;;;;;7.22;2.05;;;21.20;99.90;;;;;;5069049;28;20677;-77
2023/04/25 10:09:12;;;;;;;7.60;2.22;;;21.20;99.90;;;;;;5073496;28;20302;-77
2023/04/25 10:11:43;;;;;;;12.25;2.60;;;21.20;99.90;;;;;;5073522;28;20659;-76
2023/04/25 10:14:18;;;;;;;11.27;2.35;;;21.10;99.90;;;;;;5072153;28;20234;-77
2023/04/25 10:16:49;;;;;;;12.45;2.70;;;21.10;99.90;;;;;;5067476;28;20211;-77
2023/04/25 10:19:21;;;;;;;9.15;2.28;;;21.10;99.90;;;;;;5060843;28;20197;-76
2023/04/25 10:21:54;;;;;;;8.13;2.25;;;21.00;99.90;;;;;;5063329;28;20521;-76
2023/04/25 10:24:25;;;;;;;11.10;2.47;;;21.10;99.90;;;;;;5068604;28;20199;-75
2023/04/25 10:26:56;;;;;;;7.45;1.90;;;21.10;99.90;;;;;;5070225;28;20207;-75
2023/04/25 10:29:30;;;;;;;9.85;2.10;;;21.00;99.90;;;;;;5078343;28;21166;-75
2023/04/25 10:32:03;;;;;;;10.50;2.15;;;21.00;99.90;;;;;;5074212;28;20192;-76
2023/04/25 10:34:46;;;;;;;8.77;2.30;;;21.00;99.90;;;;;;5056139;28;20227;-77
2023/04/25 10:37:17;;;;;;;6.88;2.15;;;21.00;99.90;;;;;;5065509;28;20752;-76
2023/04/25 10:39:48;;;;;;;6.60;2.15;;;20.90;99.90;;;;;;5065893;28;20569;-76
2023/04/25 10:42:19;;;;;;;10.00;2.33;;;20.90;99.90;;;;;;5075763;28;20206;-76
2023/04/25 10:45:08;;;;;;;11.30;2.80;;;20.80;99.90;;;;;;5069277;28;20200;-78
2023/04/25 10:47:47;;;;;;;7.80;2.20;;;20.80;99.90;;;;;;5045891;28;20195;-75
2023/04/25 10:50:19;;;;;;;6.90;2.15;;;20.80;99.90;;;;;;5070094;28;20192;-75
2023/04/25 10:52:52;;;;;;;10.23;2.60;;;20.80;99.90;;;;;;5070173;28;20199;-75
2023/04/25 10:55:24;;;;;;;8.82;2.50;;;20.80;99.90;;;;;;5065537;28;20575;-75
2023/04/25 10:57:56;;;;;;;7.88;2.33;;;20.80;99.90;;;;;;5060626;28;20238;-77
2023/04/25 11:00:33;;;;;;;9.35;2.50;;;20.70;99.90;;;;;;5071259;28;20235;-76
2023/04/25 11:03:07;;;;;;;10.23;2.83;;;20.70;99.90;;;;;;5073057;28;20200;-75
2023/04/25 11:05:40;;;;;;;10.57;2.58;;;20.70;99.90;;;;;;5070190;28;20253;-76
2023/04/25 11:08:16;;;;;;;13.52;2.80;;;20.60;99.90;;;;;;5070645;28;20191;-76
2023/04/25 11:10:47;;;;;;;12.93;2.50;;;20.60;99.90;;;;;;5077551;28;20196;-76
2023/04/25 11:13:18;;;;;;;10.02;2.58;;;20.60;99.90;;;;;;5070704;28;20659;-77
2023/04/25 11:15:55;;;;;;;9.52;2.63;;;20.60;99.90;;;;;;5066175;28;20199;-75
2023/04/25 11:18:28;;;;;;;11.52;3.15;;;20.60;99.90;;;;;;5065631;28;20196;-76
2023/04/25 11:21:00;;;;;;;7.60;2.00;;;20.60;99.90;;;;;;5071693;28;20555;-79
2023/04/25 11:23:32;;;;;;;8.60;2.38;;;20.50;99.90;;;;;;5062863;28;20249;-75
2023/04/25 11:26:06;;;;;;;14.07;2.72;;;20.50;99.90;;;;;;5067936;28;20250;-77
2023/04/25 11:28:38;;;;;;;10.43;2.50;;;20.50;99.90;;;;;;5089081;28;20207;-76
2023/04/25 11:31:11;;;;;;;9.27;2.22;;;20.50;99.90;;;;;;5050364;28;20204;-75
2023/04/25 11:33:44;;;;;;;7.25;2.28;;;20.50;99.90;;;;;;5052780;28;20223;-76
2023/04/25 11:36:16;;;;;;;8.93;1.98;;;20.50;99.90;;;;;;5049013;28;20204;-77
2023/04/25 11:38:47;;;;;;;8.65;2.00;;;20.50;99.90;;;;;;5048220;28;20514;-75
2023/04/25 11:41:18;;;;;;;6.82;1.85;;;20.50;99.90;;;;;;5047894;28;20413;-77
2023/04/25 11:43:51;;;;;;;12.07;2.70;;;20.50;99.90;;;;;;5046250;28;20214;-75
2023/04/25 11:46:25;;;;;;;10.30;2.78;;;20.60;99.90;;;;;;5049554;28;20950;-77
2023/04/25 11:49:00;;;;;;;9.00;2.30;;;20.60;99.90;;;;;;5051012;28;20686;-78
2023/04/25 11:51:31;;;;;;;8.65;2.05;;;20.50;99.90;;;;;;5048028;28;20280;-76
2023/04/25 11:54:02;;;;;;;9.23;2.33;;;20.60;99.90;;;;;;5046731;28;20283;-74
2023/04/25 11:56:33;;;;;;;8.82;2.17;;;20.50;99.90;;;;;;5044821;28;20216;-77
2023/04/25 11:59:10;;;;;;;10.10;2.50;;;20.50;99.90;;;;;;5026769;28;20897;-77
2023/04/25 12:01:50;;;;;;;7.07;1.92;;;20.50;99.90;;;;;;5021541;28;20220;-75
2023/04/25 12:04:22;;;;;;;7.30;2.00;;;20.50;99.90;;;;;;5029879;28;20208;-75
2023/04/25 12:06:54;;;;;;;12.10;2.35;;;20.50;99.90;;;;;;5022231;28;20204;-74
2023/04/25 12:09:32;;;;;;;9.23;2.38;;;20.50;99.90;;;;;;5021698;28;20200;-75
2023/04/25 12:12:05;;;;;;;9.13;2.17;;;20.40;99.90;;;;;;5022466;28;20208;-76
2023/04/25 12:14:37;;;;;;;10.63;2.47;;;20.40;99.90;;;;;;5023009;28;20700;-75
2023/04/25 12:17:11;;;;;;;8.68;2.00;;;20.40;99.90;;;;;;5024067;28;20224;-76
2023/04/25 12:19:44;;;;;;;11.10;2.10;;;20.40;99.90;;;;;;5026754;28;20336;-74
2023/04/25 12:22:25;;;;;;;7.63;1.90;;;20.40;99.90;;;;;;5027590;28;21037;-74
2023/04/25 12:24:58;;;;;;;7.00;2.00;;;20.40;99.90;;;;;;5025329;28;22742;-75
2023/04/25 12:27:33;;;;;;;9.15;2.72;;;20.30;99.90;;;;;;5034252;28;20261;-76
2023/04/25 12:30:05;;;;;;;11.23;2.05;;;20.30;99.90;;;;;;5029380;28;20231;-74
2023/04/25 12:32:41;;;;;;;8.90;2.22;;;20.30;99.90;;;;;;5032661;28;20224;-74
2023/04/25 12:35:12;;;;;;;10.07;2.53;;;20.20;99.90;;;;;;5029135;28;20220;-74
2023/04/25 12:37:43;;;;;;;9.68;2.13;;;20.20;99.90;;;;;;5031980;28;20224;-75
2023/04/25 12:40:15;;;;;;;11.10;2.42;;;20.20;99.90;;;;;;5037661;28;20203;-74
2023/04/25 12:42:46;;;;;;;11.05;2.53;;;20.20;99.90;;;;;;5032107;28;20657;-74
2023/04/25 12:45:17;;;;;;;9.23;2.35;;;20.20;99.90;;;;;;5024908;28;20209;-74
2023/04/25 12:47:50;;;;;;;10.50;2.65;;;20.20;99.90;;;;;;5030434;28;20220;-74
2023/04/25 12:50:22;;;;;;;14.73;3.08;;;20.20;99.90;;;;;;5031895;28;20688;-75
2023/04/25 12:52:54;;;;;;;8.13;2.30;;;20.20;99.90;;;;;;5025223;28;20212;-75
2023/04/25 12:55:25;;;;;;;10.48;2.30;;;20.10;99.90;;;;;;5023684;28;20725;-74
2023/04/25 12:57:56;;;;;;;9.52;2.30;;;20.10;99.90;;;;;;5033607;28;22579;-76
2023/04/25 13:00:27;;;;;;;11.98;2.20;;;20.10;99.90;;;;;;5055938;22;20253;-74
2023/04/25 13:03:01;;;;;;;12.90;2.70;;;20.10;99.90;;;;;;5042241;28;20205;-75
2023/04/25 13:05:32;;;;;;;10.50;2.08;;;20.20;99.90;;;;;;5048074;28;20220;-75
2023/04/25 13:08:05;;;;;;;9.40;2.15;;;20.10;99.90;;;;;;5045441;28;20199;-75